sensor_id;sensor_type;location;lat;lon;timestamp;temperature;humidity
47434;SHT31;33184;48.774;8.918;2023-04-16T00:03:39;6.73;94.13
47434;SHT31;33184;48.774;8.918;2023-04-16T00:08:59;6.70;94.18
47434;SHT31;33184;48.774;8.918;2023-04-16T00:14:20;6.75;94.21
47434;SHT31;33184;48.774;8.918;2023-04-16T00:19:41;6.73;94.30
47434;SHT31;33184;48.774;8.918;2023-04-16T00:25:02;6.72;94.34
47434;SHT31;33184;48.774;8.918;2023-04-16T00:30:23;6.73;94.27
47434;SHT31;33184;48.774;8.918;2023-04-16T00:35:47;6.72;94.39
47434;SHT31;33184;48.774;8.918;2023-04-16T00:41:07;6.68;94.35
47434;SHT31;33184;48.774;8.918;2023-04-16T00:46:28;6.69;94.32
47434;SHT31;33184;48.774;8.918;2023-04-16T00:51:49;6.72;94.41
47434;SHT31;33184;48.774;8.918;2023-04-16T00:57:10;6.72;94.43
47434;SHT31;33184;48.774;8.918;2023-04-16T01:02:33;6.73;94.44
47434;SHT31;33184;48.774;8.918;2023-04-16T01:07:58;6.72;94.41
47434;SHT31;33184;48.774;8.918;2023-04-16T01:13:19;6.73;94.40
47434;SHT31;33184;48.774;8.918;2023-04-16T01:18:39;6.75;94.35
47434;SHT31;33184;48.774;8.918;2023-04-16T01:24:03;6.73;94.42
47434;SHT31;33184;48.774;8.918;2023-04-16T01:29:25;6.72;94.48
47434;SHT31;33184;48.774;8.918;2023-04-16T01:34:46;6.70;94.50
47434;SHT31;33184;48.774;8.918;2023-04-16T01:40:07;6.68;94.51
47434;SHT31;33184;48.774;8.918;2023-04-16T01:45:27;6.70;94.55
47434;SHT31;33184;48.774;8.918;2023-04-16T01:50:48;6.70;94.61
47434;SHT31;33184;48.774;8.918;2023-04-16T01:56:09;6.69;94.61
47434;SHT31;33184;48.774;8.918;2023-04-16T02:01:29;6.69;94.64
47434;SHT31;33184;48.774;8.918;2023-04-16T02:06:50;6.70;94.76
47434;SHT31;33184;48.774;8.918;2023-04-16T02:12:11;6.65;94.80
47434;SHT31;33184;48.774;8.918;2023-04-16T02:17:31;6.63;94.77
47434;SHT31;33184;48.774;8.918;2023-04-16T02:23:01;6.65;94.72
47434;SHT31;33184;48.774;8.918;2023-04-16T02:28:22;6.65;94.67
47434;SHT31;33184;48.774;8.918;2023-04-16T02:33:42;6.65;94.75
47434;SHT31;33184;48.774;8.918;2023-04-16T02:39:03;6.63;94.74
47434;SHT31;33184;48.774;8.918;2023-04-16T02:44:24;6.66;94.67
47434;SHT31;33184;48.774;8.918;2023-04-16T02:49:45;6.63;94.70
47434;SHT31;33184;48.774;8.918;2023-04-16T02:55:06;6.59;94.76
47434;SHT31;33184;48.774;8.918;2023-04-16T03:00:26;6.65;94.92
47434;SHT31;33184;48.774;8.918;2023-04-16T03:05:47;6.59;94.71
47434;SHT31;33184;48.774;8.918;2023-04-16T03:11:08;6.53;94.67
47434;SHT31;33184;48.774;8.918;2023-04-16T03:16:28;6.56;95.00
47434;SHT31;33184;48.774;8.918;2023-04-16T03:21:49;6.53;94.85
47434;SHT31;33184;48.774;8.918;2023-04-16T03:27:12;6.54;94.98
47434;SHT31;33184;48.774;8.918;2023-04-16T03:32:33;6.53;94.95
47434;SHT31;33184;48.774;8.918;2023-04-16T03:37:55;6.52;94.98
47434;SHT31;33184;48.774;8.918;2023-04-16T03:43:16;6.52;94.95
47434;SHT31;33184;48.774;8.918;2023-04-16T03:48:37;6.52;95.00
47434;SHT31;33184;48.774;8.918;2023-04-16T03:53:58;6.49;94.92
47434;SHT31;33184;48.774;8.918;2023-04-16T03:59:20;6.53;94.90
47434;SHT31;33184;48.774;8.918;2023-04-16T04:04:40;6.49;94.87
47434;SHT31;33184;48.774;8.918;2023-04-16T04:10:03;6.52;94.87
47434;SHT31;33184;48.774;8.918;2023-04-16T04:15:27;6.49;94.77
47434;SHT31;33184;48.774;8.918;2023-04-16T04:20:48;6.52;94.92
47434;SHT31;33184;48.774;8.918;2023-04-16T04:26:12;6.53;94.98
47434;SHT31;33184;48.774;8.918;2023-04-16T04:31:34;6.49;94.98
47434;SHT31;33184;48.774;8.918;2023-04-16T04:36:55;6.50;95.03
47434;SHT31;33184;48.774;8.918;2023-04-16T04:42:16;6.48;94.99
47434;SHT31;33184;48.774;8.918;2023-04-16T04:47:40;6.52;95.09
47434;SHT31;33184;48.774;8.918;2023-04-16T04:53:01;6.49;95.13
47434;SHT31;33184;48.774;8.918;2023-04-16T04:58:22;6.50;95.18
47434;SHT31;33184;48.774;8.918;2023-04-16T05:03:43;6.48;95.27
47434;SHT31;33184;48.774;8.918;2023-04-16T05:09:03;6.45;95.67
47434;SHT31;33184;48.774;8.918;2023-04-16T05:14:24;6.36;95.86
47434;SHT31;33184;48.774;8.918;2023-04-16T05:19:45;6.40;96.02
47434;SHT31;33184;48.774;8.918;2023-04-16T05:25:06;6.40;96.07
47434;SHT31;33184;48.774;8.918;2023-04-16T05:30:26;6.36;96.10
47434;SHT31;33184;48.774;8.918;2023-04-16T05:35:47;6.39;96.20
47434;SHT31;33184;48.774;8.918;2023-04-16T05:41:08;6.42;96.20
47434;SHT31;33184;48.774;8.918;2023-04-16T05:46:28;6.35;96.32
47434;SHT31;33184;48.774;8.918;2023-04-16T05:51:49;6.33;96.50
47434;SHT31;33184;48.774;8.918;2023-04-16T05:57:09;6.36;96.43
47434;SHT31;33184;48.774;8.918;2023-04-16T06:02:30;6.38;96.51
47434;SHT31;33184;48.774;8.918;2023-04-16T06:07:50;6.35;96.46
47434;SHT31;33184;48.774;8.918;2023-04-16T06:13:11;6.33;96.64
47434;SHT31;33184;48.774;8.918;2023-04-16T06:18:31;6.33;96.75
47434;SHT31;33184;48.774;8.918;2023-04-16T06:23:53;6.30;96.68
47434;SHT31;33184;48.774;8.918;2023-04-16T06:29:14;6.28;96.71
47434;SHT31;33184;48.774;8.918;2023-04-16T06:34:36;6.30;96.78
47434;SHT31;33184;48.774;8.918;2023-04-16T06:39:56;6.29;96.85
47434;SHT31;33184;48.774;8.918;2023-04-16T06:45:17;6.33;96.85
47434;SHT31;33184;48.774;8.918;2023-04-16T06:50:37;6.30;96.73
47434;SHT31;33184;48.774;8.918;2023-04-16T06:55:58;6.33;96.82
47434;SHT31;33184;48.774;8.918;2023-04-16T07:01:18;6.40;96.77
47434;SHT31;33184;48.774;8.918;2023-04-16T07:06:39;6.38;96.57
47434;SHT31;33184;48.774;8.918;2023-04-16T07:12:00;6.40;96.49
47434;SHT31;33184;48.774;8.918;2023-04-16T07:17:20;6.45;96.33
47434;SHT31;33184;48.774;8.918;2023-04-16T07:22:41;6.45;96.09
47434;SHT31;33184;48.774;8.918;2023-04-16T07:28:02;6.48;95.95
47434;SHT31;33184;48.774;8.918;2023-04-16T07:33:23;6.53;95.78
47434;SHT31;33184;48.774;8.918;2023-04-16T07:38:44;6.52;95.57
47434;SHT31;33184;48.774;8.918;2023-04-16T07:44:04;6.54;95.34
47434;SHT31;33184;48.774;8.918;2023-04-16T07:49:25;6.59;95.22
47434;SHT31;33184;48.774;8.918;2023-04-16T07:54:46;6.59;95.09
47434;SHT31;33184;48.774;8.918;2023-04-16T08:00:08;6.60;94.91
47434;SHT31;33184;48.774;8.918;2023-04-16T08:05:35;6.59;94.33
47434;SHT31;33184;48.774;8.918;2023-04-16T08:10:55;6.56;94.41
47434;SHT31;33184;48.774;8.918;2023-04-16T08:16:17;6.62;94.46
47434;SHT31;33184;48.774;8.918;2023-04-16T08:21:37;6.70;94.20
47434;SHT31;33184;48.774;8.918;2023-04-16T08:26:58;6.72;93.91
47434;SHT31;33184;48.774;8.918;2023-04-16T08:32:22;6.77;93.84
47434;SHT31;33184;48.774;8.918;2023-04-16T08:37:43;6.77;93.77
47434;SHT31;33184;48.774;8.918;2023-04-16T08:43:08;6.76;93.59
47434;SHT31;33184;48.774;8.918;2023-04-16T08:48:32;6.80;93.46
47434;SHT31;33184;48.774;8.918;2023-04-16T08:53:59;6.89;93.40
47434;SHT31;33184;48.774;8.918;2023-04-16T08:59:22;6.91;93.31
47434;SHT31;33184;48.774;8.918;2023-04-16T09:04:43;7.00;93.26
47434;SHT31;33184;48.774;8.918;2023-04-16T09:10:06;7.03;93.08
47434;SHT31;33184;48.774;8.918;2023-04-16T09:15:27;7.04;93.13
47434;SHT31;33184;48.774;8.918;2023-04-16T09:20:49;7.08;93.22
47434;SHT31;33184;48.774;8.918;2023-04-16T09:26:10;7.18;93.22
47434;SHT31;33184;48.774;8.918;2023-04-16T09:31:31;7.28;93.26
47434;SHT31;33184;48.774;8.918;2023-04-16T09:36:51;7.20;92.93
47434;SHT31;33184;48.774;8.918;2023-04-16T09:42:12;7.24;93.07
47434;SHT31;33184;48.774;8.918;2023-04-16T09:47:41;7.21;93.27
47434;SHT31;33184;48.774;8.918;2023-04-16T09:53:02;7.39;93.25
47434;SHT31;33184;48.774;8.918;2023-04-16T09:58:23;7.46;93.04
47434;SHT31;33184;48.774;8.918;2023-04-16T10:03:48;7.83;93.42
47434;SHT31;33184;48.774;8.918;2023-04-16T10:09:08;7.67;91.99
47434;SHT31;33184;48.774;8.918;2023-04-16T10:14:30;7.42;91.77
47434;SHT31;33184;48.774;8.918;2023-04-16T10:19:51;7.39;92.16
47434;SHT31;33184;48.774;8.918;2023-04-16T10:25:12;7.39;92.17
47434;SHT31;33184;48.774;8.918;2023-04-16T10:30:33;7.34;92.19
47434;SHT31;33184;48.774;8.918;2023-04-16T10:36:08;7.35;92.34
47434;SHT31;33184;48.774;8.918;2023-04-16T10:41:31;7.35;92.26
47434;SHT31;33184;48.774;8.918;2023-04-16T10:46:53;7.39;92.35
47434;SHT31;33184;48.774;8.918;2023-04-16T10:52:15;7.48;92.57
47434;SHT31;33184;48.774;8.918;2023-04-16T10:57:39;7.52;92.69
47434;SHT31;33184;48.774;8.918;2023-04-16T11:03:00;7.54;92.30
47434;SHT31;33184;48.774;8.918;2023-04-16T11:08:21;7.59;92.37
47434;SHT31;33184;48.774;8.918;2023-04-16T11:13:42;7.74;92.20
47434;SHT31;33184;48.774;8.918;2023-04-16T11:19:04;7.74;92.03
47434;SHT31;33184;48.774;8.918;2023-04-16T11:24:28;7.79;92.05
47434;SHT31;33184;48.774;8.918;2023-04-16T11:29:57;7.93;92.09
47434;SHT31;33184;48.774;8.918;2023-04-16T11:35:18;8.03;91.71
47434;SHT31;33184;48.774;8.918;2023-04-16T11:40:41;8.03;90.94
47434;SHT31;33184;48.774;8.918;2023-04-16T11:46:03;8.13;91.60
47434;SHT31;33184;48.774;8.918;2023-04-16T11:51:24;8.29;91.45
47434;SHT31;33184;48.774;8.918;2023-04-16T11:56:46;8.29;91.29
47434;SHT31;33184;48.774;8.918;2023-04-16T12:02:07;8.27;91.37
47434;SHT31;33184;48.774;8.918;2023-04-16T12:07:27;8.30;91.49
47434;SHT31;33184;48.774;8.918;2023-04-16T12:12:48;8.31;90.92
47434;SHT31;33184;48.774;8.918;2023-04-16T12:18:08;8.37;90.83
47434;SHT31;33184;48.774;8.918;2023-04-16T12:23:31;8.33;90.76
47434;SHT31;33184;48.774;8.918;2023-04-16T12:28:52;8.24;90.81
47434;SHT31;33184;48.774;8.918;2023-04-16T12:34:12;8.29;91.36
47434;SHT31;33184;48.774;8.918;2023-04-16T12:39:35;8.17;91.43
47434;SHT31;33184;48.774;8.918;2023-04-16T12:44:56;8.13;91.75
47434;SHT31;33184;48.774;8.918;2023-04-16T12:50:16;8.06;91.82
47434;SHT31;33184;48.774;8.918;2023-04-16T12:55:37;8.03;91.77
47434;SHT31;33184;48.774;8.918;2023-04-16T13:00:58;8.10;91.99
47434;SHT31;33184;48.774;8.918;2023-04-16T13:06:19;8.03;91.88
47434;SHT31;33184;48.774;8.918;2023-04-16T13:11:40;8.26;91.79
47434;SHT31;33184;48.774;8.918;2023-04-16T13:17:01;8.24;92.12
47434;SHT31;33184;48.774;8.918;2023-04-16T13:22:23;8.24;91.54
47434;SHT31;33184;48.774;8.918;2023-04-16T13:27:43;8.09;91.55
47434;SHT31;33184;48.774;8.918;2023-04-16T13:33:04;8.03;92.11
47434;SHT31;33184;48.774;8.918;2023-04-16T13:38:24;8.06;92.04
47434;SHT31;33184;48.774;8.918;2023-04-16T13:43:45;8.03;92.29
47434;SHT31;33184;48.774;8.918;2023-04-16T13:49:05;7.92;92.45
47434;SHT31;33184;48.774;8.918;2023-04-16T13:54:26;7.95;92.67
47434;SHT31;33184;48.774;8.918;2023-04-16T13:59:46;7.95;92.78
47434;SHT31;33184;48.774;8.918;2023-04-16T14:05:07;8.05;93.09
47434;SHT31;33184;48.774;8.918;2023-04-16T14:10:28;7.96;92.66
47434;SHT31;33184;48.774;8.918;2023-04-16T14:15:49;7.99;93.26
47434;SHT31;33184;48.774;8.918;2023-04-16T14:21:11;8.09;93.00
47434;SHT31;33184;48.774;8.918;2023-04-16T14:26:32;8.03;93.09
47434;SHT31;33184;48.774;8.918;2023-04-16T14:31:53;8.06;93.24
47434;SHT31;33184;48.774;8.918;2023-04-16T14:37:15;8.00;93.19
47434;SHT31;33184;48.774;8.918;2023-04-16T14:42:36;7.90;93.27
47434;SHT31;33184;48.774;8.918;2023-04-16T14:47:56;7.85;93.52
47434;SHT31;33184;48.774;8.918;2023-04-16T14:53:17;7.90;93.90
47434;SHT31;33184;48.774;8.918;2023-04-16T14:58:38;7.87;93.93
47434;SHT31;33184;48.774;8.918;2023-04-16T15:03:59;7.79;94.06
47434;SHT31;33184;48.774;8.918;2023-04-16T15:09:19;7.83;94.26
47434;SHT31;33184;48.774;8.918;2023-04-16T15:14:40;7.79;94.42
47434;SHT31;33184;48.774;8.918;2023-04-16T15:20:00;7.79;94.64
47434;SHT31;33184;48.774;8.918;2023-04-16T15:25:21;7.76;94.87
47434;SHT31;33184;48.774;8.918;2023-04-16T15:30:42;7.76;95.14
47434;SHT31;33184;48.774;8.918;2023-04-16T15:36:03;7.75;95.36
47434;SHT31;33184;48.774;8.918;2023-04-16T15:41:24;7.79;95.42
47434;SHT31;33184;48.774;8.918;2023-04-16T15:46:45;7.78;95.58
47434;SHT31;33184;48.774;8.918;2023-04-16T15:52:06;7.76;95.64
47434;SHT31;33184;48.774;8.918;2023-04-16T15:57:26;7.81;95.76
47434;SHT31;33184;48.774;8.918;2023-04-16T16:02:47;7.79;95.79
47434;SHT31;33184;48.774;8.918;2023-04-16T16:08:08;7.81;95.73
47434;SHT31;33184;48.774;8.918;2023-04-16T16:13:28;7.85;95.87
47434;SHT31;33184;48.774;8.918;2023-04-16T16:18:49;7.85;95.79
47434;SHT31;33184;48.774;8.918;2023-04-16T16:24:09;7.82;95.73
47434;SHT31;33184;48.774;8.918;2023-04-16T16:29:30;7.81;95.78
47434;SHT31;33184;48.774;8.918;2023-04-16T16:34:50;7.85;95.85
47434;SHT31;33184;48.774;8.918;2023-04-16T16:40:11;7.83;95.97
47434;SHT31;33184;48.774;8.918;2023-04-16T16:45:31;7.85;95.97
47434;SHT31;33184;48.774;8.918;2023-04-16T16:50:52;7.82;95.96
47434;SHT31;33184;48.774;8.918;2023-04-16T16:56:12;7.83;96.01
47434;SHT31;33184;48.774;8.918;2023-04-16T17:01:33;7.85;95.99
47434;SHT31;33184;48.774;8.918;2023-04-16T17:06:54;7.86;96.02
47434;SHT31;33184;48.774;8.918;2023-04-16T17:12:14;7.86;95.99
47434;SHT31;33184;48.774;8.918;2023-04-16T17:17:35;7.82;95.96
47434;SHT31;33184;48.774;8.918;2023-04-16T17:22:56;7.83;96.13
47434;SHT31;33184;48.774;8.918;2023-04-16T17:28:17;7.85;96.26
47434;SHT31;33184;48.774;8.918;2023-04-16T17:33:38;7.82;96.26
47434;SHT31;33184;48.774;8.918;2023-04-16T17:38:58;7.82;96.23
47434;SHT31;33184;48.774;8.918;2023-04-16T17:44:19;7.82;96.23
47434;SHT31;33184;48.774;8.918;2023-04-16T17:49:39;7.86;96.15
47434;SHT31;33184;48.774;8.918;2023-04-16T17:55:00;7.87;95.97
47434;SHT31;33184;48.774;8.918;2023-04-16T18:00:21;7.89;95.73
47434;SHT31;33184;48.774;8.918;2023-04-16T18:05:41;7.90;95.33
47434;SHT31;33184;48.774;8.918;2023-04-16T18:11:06;7.92;95.20
47434;SHT31;33184;48.774;8.918;2023-04-16T18:16:27;7.90;95.08
47434;SHT31;33184;48.774;8.918;2023-04-16T18:21:48;7.89;94.99
47434;SHT31;33184;48.774;8.918;2023-04-16T18:27:08;7.87;94.94
47434;SHT31;33184;48.774;8.918;2023-04-16T18:32:29;7.86;94.85
47434;SHT31;33184;48.774;8.918;2023-04-16T18:37:49;7.79;94.86
47434;SHT31;33184;48.774;8.918;2023-04-16T18:43:10;7.79;94.91
47434;SHT31;33184;48.774;8.918;2023-04-16T18:48:30;7.83;94.89
47434;SHT31;33184;48.774;8.918;2023-04-16T18:53:51;7.82;94.93
47434;SHT31;33184;48.774;8.918;2023-04-16T18:59:11;7.83;94.97
47434;SHT31;33184;48.774;8.918;2023-04-16T19:04:32;7.81;94.95
47434;SHT31;33184;48.774;8.918;2023-04-16T19:09:52;7.81;94.99
47434;SHT31;33184;48.774;8.918;2023-04-16T19:15:16;7.79;94.91
47434;SHT31;33184;48.774;8.918;2023-04-16T19:20:37;7.82;94.92
47434;SHT31;33184;48.774;8.918;2023-04-16T19:25:57;7.79;94.98
47434;SHT31;33184;48.774;8.918;2023-04-16T19:31:18;7.81;95.06
47434;SHT31;33184;48.774;8.918;2023-04-16T19:36:39;7.81;95.05
47434;SHT31;33184;48.774;8.918;2023-04-16T19:41:59;7.82;95.12
47434;SHT31;33184;48.774;8.918;2023-04-16T19:47:21;7.79;95.14
47434;SHT31;33184;48.774;8.918;2023-04-16T19:52:41;7.76;95.18
47434;SHT31;33184;48.774;8.918;2023-04-16T19:58:02;7.76;95.14
47434;SHT31;33184;48.774;8.918;2023-04-16T20:03:25;7.78;95.11
47434;SHT31;33184;48.774;8.918;2023-04-16T20:08:46;7.79;95.07
47434;SHT31;33184;48.774;8.918;2023-04-16T20:14:06;7.81;94.95
47434;SHT31;33184;48.774;8.918;2023-04-16T20:19:27;7.81;94.98
47434;SHT31;33184;48.774;8.918;2023-04-16T20:24:53;7.78;94.94
47434;SHT31;33184;48.774;8.918;2023-04-16T20:30:14;7.81;94.96
47434;SHT31;33184;48.774;8.918;2023-04-16T20:35:35;7.79;94.92
47434;SHT31;33184;48.774;8.918;2023-04-16T20:40:55;7.81;94.96
47434;SHT31;33184;48.774;8.918;2023-04-16T20:46:39;7.79;94.80
47434;SHT31;33184;48.774;8.918;2023-04-16T20:52:01;7.79;94.68
47434;SHT31;33184;48.774;8.918;2023-04-16T20:57:21;7.78;94.65
47434;SHT31;33184;48.774;8.918;2023-04-16T21:02:42;7.79;94.69
47434;SHT31;33184;48.774;8.918;2023-04-16T21:08:03;7.76;94.70
47434;SHT31;33184;48.774;8.918;2023-04-16T21:13:23;7.74;94.66
47434;SHT31;33184;48.774;8.918;2023-04-16T21:18:44;7.74;94.72
47434;SHT31;33184;48.774;8.918;2023-04-16T21:24:05;7.75;94.82
47434;SHT31;33184;48.774;8.918;2023-04-16T21:29:25;7.72;94.79
47434;SHT31;33184;48.774;8.918;2023-04-16T21:34:46;7.70;94.80
47434;SHT31;33184;48.774;8.918;2023-04-16T21:40:07;7.75;94.68
47434;SHT31;33184;48.774;8.918;2023-04-16T21:45:29;7.72;94.67
47434;SHT31;33184;48.774;8.918;2023-04-16T21:50:54;7.72;94.70
47434;SHT31;33184;48.774;8.918;2023-04-16T21:56:15;7.69;94.67
47434;SHT31;33184;48.774;8.918;2023-04-16T22:01:35;7.67;94.65
47434;SHT31;33184;48.774;8.918;2023-04-16T22:06:56;7.70;94.58
47434;SHT31;33184;48.774;8.918;2023-04-16T22:12:16;7.70;94.58
47434;SHT31;33184;48.774;8.918;2023-04-16T22:17:37;7.66;94.59
47434;SHT31;33184;48.774;8.918;2023-04-16T22:22:58;7.69;94.54
47434;SHT31;33184;48.774;8.918;2023-04-16T22:28:19;7.67;94.44
47434;SHT31;33184;48.774;8.918;2023-04-16T22:33:39;7.67;94.49
47434;SHT31;33184;48.774;8.918;2023-04-16T22:39:00;7.67;94.40
47434;SHT31;33184;48.774;8.918;2023-04-16T22:44:20;7.67;94.30
47434;SHT31;33184;48.774;8.918;2023-04-16T22:49:41;7.69;94.24
47434;SHT31;33184;48.774;8.918;2023-04-16T22:55:01;7.67;94.22
47434;SHT31;33184;48.774;8.918;2023-04-16T23:00:22;7.65;94.26
47434;SHT31;33184;48.774;8.918;2023-04-16T23:05:44;7.67;94.24
47434;SHT31;33184;48.774;8.918;2023-04-16T23:11:04;7.66;94.18
47434;SHT31;33184;48.774;8.918;2023-04-16T23:16:25;7.65;94.13
47434;SHT31;33184;48.774;8.918;2023-04-16T23:21:46;7.67;94.09
47434;SHT31;33184;48.774;8.918;2023-04-16T23:27:07;7.65;94.04
47434;SHT31;33184;48.774;8.918;2023-04-16T23:32:27;7.63;94.02
47434;SHT31;33184;48.774;8.918;2023-04-16T23:37:48;7.62;94.23
47434;SHT31;33184;48.774;8.918;2023-04-16T23:43:08;7.59;94.28
47434;SHT31;33184;48.774;8.918;2023-04-16T23:48:29;7.61;94.22
47434;SHT31;33184;48.774;8.918;2023-04-16T23:53:50;7.58;94.19
47434;SHT31;33184;48.774;8.918;2023-04-16T23:59:10;7.58;94.23
